createdAt,value
2019-01-28T00:01:58.297Z,5.33
2019-01-28T00:04:48.664Z,5.00
2019-01-28T00:07:31.329Z,5.27
2019-01-28T00:10:21.726Z,4.30
2019-01-28T00:13:04.673Z,5.20
2019-01-28T00:15:54.982Z,5.00
2019-01-28T00:18:37.781Z,4.40
2019-01-28T00:21:28.172Z,5.30
2019-01-28T00:24:30.636Z,4.93
2019-01-28T00:27:21.074Z,4.97
2019-01-28T00:30:03.685Z,4.57
2019-01-28T00:32:54.083Z,4.90
2019-01-28T00:35:37.048Z,4.80
2019-01-28T00:38:27.472Z,5.10
2019-01-28T00:41:29.953Z,4.37
2019-01-28T00:44:20.341Z,4.73
2019-01-28T00:47:22.983Z,5.00
2019-01-28T00:50:06.483Z,4.43
2019-01-28T00:52:56.868Z,4.70
2019-01-28T00:55:47.308Z,4.43
2019-01-28T00:58:37.686Z,4.40
2019-01-28T01:01:28.124Z,4.10
2019-01-28T01:04:11.398Z,4.30
2019-01-28T01:07:01.744Z,4.43
2019-01-28T01:09:45.157Z,4.20
2019-01-28T01:12:35.526Z,4.40
2019-01-28T01:15:18.933Z,3.90
2019-01-28T01:18:09.294Z,3.97
2019-01-28T01:20:52.657Z,3.80
2019-01-28T01:23:43.036Z,3.33
2019-01-28T01:26:26.224Z,4.27
2019-01-28T01:29:16.583Z,4.33
2019-01-28T01:31:59.277Z,4.20
2019-01-28T01:34:49.659Z,4.23
2019-01-28T01:37:52.740Z,3.87
2019-01-28T01:40:43.684Z,4.07
2019-01-28T01:43:26.388Z,4.10
2019-01-28T01:46:16.723Z,4.37
2019-01-28T01:48:59.405Z,3.63
2019-01-28T01:51:42.522Z,3.30
2019-01-28T01:54:32.910Z,3.40
2019-01-28T01:57:23.245Z,3.20
2019-01-28T02:00:18.281Z,3.10
2019-01-28T02:03:01.696Z,2.97
2019-01-28T02:05:52.074Z,2.43
2019-01-28T02:08:34.608Z,2.40
2019-01-28T02:11:24.995Z,2.73
2019-01-28T02:14:07.955Z,2.43
2019-01-28T02:16:58.361Z,2.20
2019-01-28T02:19:41.291Z,2.47
2019-01-28T02:22:31.678Z,1.90
2019-01-28T02:25:15.311Z,2.03
2019-01-28T02:28:05.744Z,2.27
2019-01-28T02:30:48.584Z,1.80
2019-01-28T02:33:38.959Z,2.00
2019-01-28T02:36:22.035Z,1.63
2019-01-28T02:39:12.393Z,1.87
2019-01-28T02:41:55.632Z,1.80
2019-01-28T02:44:46.011Z,2.00
2019-01-28T02:47:28.643Z,1.97
2019-01-28T02:50:12.667Z,1.83
2019-01-28T02:53:02.999Z,1.60
2019-01-28T02:56:05.750Z,1.53
2019-01-28T02:58:56.119Z,2.30
2019-01-28T03:01:39.587Z,1.70
2019-01-28T03:04:29.962Z,1.53
2019-01-28T03:07:12.558Z,1.90
2019-01-28T03:13:13.065Z,1.57
2019-01-28T03:16:03.433Z,1.67
2019-01-28T03:18:47.006Z,1.57
2019-01-28T03:21:37.364Z,1.90
2019-01-28T03:24:20.850Z,1.50
2019-01-28T03:27:11.231Z,1.80
2019-01-28T03:29:54.390Z,1.80
2019-01-28T03:32:44.806Z,1.57
2019-01-28T03:35:28.096Z,2.00
2019-01-28T03:38:18.487Z,2.00
2019-01-28T03:41:01.870Z,1.60
2019-01-28T03:43:52.207Z,1.90
2019-01-28T03:46:34.719Z,1.93
2019-01-28T03:49:25.086Z,2.00
2019-01-28T03:52:09.312Z,1.73
2019-01-28T03:54:59.675Z,1.90
2019-01-28T03:57:42.293Z,2.03
2019-01-28T04:00:32.703Z,1.90
2019-01-28T04:03:16.207Z,2.23
2019-01-28T04:06:06.558Z,2.10
2019-01-28T04:08:49.834Z,2.30
2019-01-28T04:11:40.185Z,2.13
2019-01-28T04:14:23.621Z,2.40
2019-01-28T04:17:14.007Z,2.10
2019-01-28T04:19:57.003Z,2.50
2019-01-28T04:22:47.329Z,2.27
2019-01-28T04:25:30.851Z,2.30
2019-01-28T04:28:21.180Z,2.57
2019-01-28T04:31:04.143Z,2.50
2019-01-28T04:33:54.485Z,2.30
2019-01-28T04:36:37.757Z,2.30
2019-01-28T04:39:28.128Z,3.00
2019-01-28T04:42:11.611Z,2.70
2019-01-28T04:45:01.966Z,3.27
2019-01-28T04:47:45.429Z,3.30
2019-01-28T04:50:35.780Z,3.03
2019-01-28T04:53:19.131Z,3.23
2019-01-28T04:56:09.492Z,3.20
2019-01-28T04:58:52.163Z,3.53
2019-01-28T05:01:42.528Z,3.50
2019-01-28T05:04:25.975Z,3.90
2019-01-28T05:07:16.307Z,3.63
2019-01-28T05:09:59.704Z,3.87
2019-01-28T05:12:50.172Z,3.20
2019-01-28T05:15:33.664Z,3.20
2019-01-28T05:18:24.026Z,3.00
2019-01-28T05:21:07.628Z,2.87
2019-01-28T05:23:57.976Z,2.53
2019-01-28T05:27:00.798Z,2.70
2019-01-28T05:29:51.142Z,2.90
2019-01-28T05:32:33.790Z,2.90
2019-01-28T05:35:24.281Z,2.53
2019-01-28T05:38:07.771Z,2.70
2019-01-28T05:40:50.927Z,2.30
2019-01-28T05:43:41.296Z,2.50
2019-01-28T05:46:24.441Z,2.77
2019-01-28T05:49:14.801Z,2.80
2019-01-28T05:51:58.397Z,2.80
2019-01-28T05:54:48.719Z,2.60
2019-01-28T05:57:31.700Z,2.33
2019-01-28T06:03:49.009Z,2.67
2019-01-28T06:06:39.368Z,2.43
2019-01-28T06:09:22.153Z,3.13
2019-01-28T06:12:12.559Z,3.20
2019-01-28T06:15:02.946Z,3.23
2019-01-28T06:17:53.307Z,3.47
2019-01-28T06:20:36.306Z,3.70
2019-01-28T06:23:26.649Z,4.20
2019-01-28T06:26:09.890Z,3.83
2019-01-28T06:29:00.256Z,4.73
2019-01-28T06:31:43.542Z,4.70
2019-01-28T06:34:33.903Z,5.97
2019-01-28T06:37:16.431Z,5.43
2019-01-28T06:40:08.649Z,5.67
2019-01-28T06:42:51.963Z,6.07
2019-01-28T06:45:42.343Z,7.27
2019-01-28T06:48:25.093Z,7.47
2019-01-28T06:51:15.437Z,7.03
2019-01-28T06:53:58.218Z,6.73
2019-01-28T06:56:48.601Z,6.80
2019-01-28T06:59:31.259Z,7.00
2019-01-28T07:02:21.667Z,7.33
2019-01-28T07:05:05.693Z,7.00
2019-01-28T07:07:56.139Z,6.80
2019-01-28T07:10:39.111Z,7.40
2019-01-28T07:13:29.477Z,8.53
2019-01-28T07:16:12.715Z,8.90
2019-01-28T07:19:03.090Z,10.10
2019-01-28T07:21:45.687Z,9.63
2019-01-28T07:24:36.071Z,10.30
2019-01-28T07:27:18.632Z,10.80
2019-01-28T07:30:11.533Z,9.77
2019-01-28T07:32:54.568Z,9.27
2019-01-28T07:35:44.968Z,9.20
2019-01-28T07:38:28.164Z,8.63
2019-01-28T07:41:18.494Z,7.87
2019-01-28T07:44:01.406Z,8.20
2019-01-28T07:46:51.785Z,8.10
2019-01-28T07:49:35.202Z,7.80
2019-01-28T07:52:25.573Z,8.27
2019-01-28T07:55:08.649Z,8.27
2019-01-28T07:57:59.043Z,8.73
2019-01-28T08:00:41.628Z,9.00
2019-01-28T08:03:32.007Z,8.30
2019-01-28T08:06:15.616Z,9.07
2019-01-28T08:09:46.773Z,9.07
2019-01-28T08:12:29.614Z,9.70
2019-01-28T08:15:13.872Z,10.17
2019-01-28T08:18:10.611Z,10.27
2019-01-28T08:21:08.798Z,9.83
2019-01-28T08:23:59.180Z,9.57
2019-01-28T08:26:41.696Z,10.17
2019-01-28T08:29:32.052Z,10.37
2019-01-28T08:32:15.605Z,10.37
2019-01-28T08:35:06.950Z,11.13
2019-01-28T08:37:50.374Z,10.50
2019-01-28T08:40:40.777Z,10.80
2019-01-28T08:43:23.714Z,9.27
2019-01-28T08:46:14.129Z,10.47
2019-01-28T08:48:57.686Z,9.90
2019-01-28T08:51:48.064Z,8.77
2019-01-28T08:54:31.482Z,8.43
2019-01-28T08:57:21.836Z,7.90
2019-01-28T09:00:07.121Z,7.33
2019-01-28T09:02:38.447Z,8.03
2019-01-28T09:05:22.489Z,8.07
2019-01-28T09:08:12.939Z,7.37
2019-01-28T09:10:56.096Z,7.03
2019-01-28T09:13:38.755Z,6.67
2019-01-28T09:16:29.104Z,6.53
2019-01-28T09:19:12.029Z,6.40
2019-01-28T09:22:02.400Z,5.87
2019-01-28T09:24:45.551Z,5.47
2019-01-28T09:27:35.931Z,5.13
2019-01-28T09:30:38.437Z,4.37
2019-01-28T09:33:28.792Z,3.90
2019-01-28T09:36:11.537Z,3.80
2019-01-28T09:39:01.882Z,3.20
2019-01-28T09:41:44.591Z,2.90
2019-01-28T09:44:34.933Z,2.90
2019-01-28T09:47:18.195Z,2.77
2019-01-28T09:50:09.070Z,2.67
2019-01-28T09:52:52.312Z,2.70
2019-01-28T09:55:42.669Z,2.47
2019-01-28T09:58:25.414Z,2.17
2019-01-28T10:01:15.794Z,2.00
2019-01-28T10:03:59.290Z,2.03
2019-01-28T10:06:49.641Z,1.90
2019-01-28T10:09:32.904Z,2.27
2019-01-28T10:12:23.266Z,2.03
2019-01-28T10:15:07.057Z,2.47
2019-01-28T10:17:57.414Z,2.10
2019-01-28T10:20:44.667Z,2.63
2019-01-28T10:23:34.239Z,2.97
2019-01-28T10:26:17.523Z,2.63
2019-01-28T10:29:07.896Z,2.60
2019-01-28T10:31:50.709Z,2.40
2019-01-28T10:34:41.094Z,2.53
2019-01-28T10:37:23.686Z,3.30
2019-01-28T10:40:54.595Z,3.07
2019-01-28T10:43:38.047Z,2.47
2019-01-28T10:46:28.420Z,2.40
2019-01-28T10:49:11.927Z,2.43
2019-01-28T10:52:02.291Z,2.40
2019-01-28T10:54:45.337Z,2.47
2019-01-28T10:57:35.713Z,2.50
2019-01-28T11:00:26.066Z,2.53
2019-01-28T11:03:56.567Z,1.90
2019-01-28T11:06:39.623Z,2.07
2019-01-28T11:09:29.970Z,2.17
2019-01-28T11:12:13.313Z,1.73
2019-01-28T11:18:31.770Z,1.40
2019-01-28T11:21:22.183Z,1.40
2019-01-28T11:24:12.580Z,1.40
2019-01-28T11:26:56.145Z,1.50
2019-01-28T11:29:46.484Z,1.83
2019-01-28T11:32:49.364Z,1.70
2019-01-28T11:39:09.374Z,1.63
2019-01-28T11:41:59.875Z,1.57
2019-01-28T11:44:42.561Z,1.63
2019-01-28T11:47:32.971Z,2.40
2019-01-28T11:50:35.706Z,2.00
2019-01-28T11:53:26.084Z,3.20
2019-01-28T11:56:08.904Z,2.90
2019-01-28T11:58:52.248Z,3.00
2019-01-28T12:01:42.620Z,2.90
2019-01-28T12:04:26.124Z,3.47
2019-01-28T12:07:16.509Z,2.57
2019-01-28T12:09:59.877Z,2.97
2019-01-28T12:12:50.207Z,2.60
2019-01-28T12:15:33.314Z,2.00
2019-01-28T12:18:23.756Z,1.60
2019-01-28T12:21:08.212Z,1.37
2019-01-28T12:27:07.212Z,1.87
2019-01-28T12:29:57.623Z,1.40
2019-01-28T12:32:40.990Z,1.40
2019-01-28T12:35:31.319Z,0.90
2019-01-28T12:38:14.265Z,1.00
2019-01-28T12:40:57.172Z,1.20
2019-01-28T12:43:47.506Z,1.00
2019-01-28T12:46:37.861Z,1.37
2019-01-28T12:49:22.182Z,1.10
2019-01-28T12:52:12.725Z,1.10
2019-01-28T12:54:55.795Z,1.20
2019-01-28T12:57:46.177Z,1.30
2019-01-28T13:00:41.079Z,1.00
2019-01-28T13:03:31.456Z,1.00
2019-01-28T13:06:14.201Z,1.00
2019-01-28T13:09:26.208Z,1.43
2019-01-28T13:12:08.679Z,1.30
2019-01-28T13:14:59.057Z,1.60
2019-01-28T13:17:41.663Z,1.27
2019-01-28T13:20:32.007Z,1.23
2019-01-28T13:23:14.863Z,1.37
2019-01-28T13:26:05.358Z,1.17
2019-01-28T13:28:48.144Z,1.13
2019-01-28T13:31:38.494Z,1.20
2019-01-28T13:34:21.671Z,1.47
2019-01-28T13:37:12.056Z,1.47
2019-01-28T13:39:54.825Z,1.20
2019-01-28T13:42:37.698Z,1.53
2019-01-28T13:45:28.154Z,1.00
2019-01-28T13:51:27.684Z,1.43
2019-01-28T13:54:18.034Z,1.13
2019-01-28T13:57:00.557Z,1.27
2019-01-28T13:59:50.941Z,1.30
2019-01-28T14:02:33.428Z,1.50
2019-01-28T14:08:53.252Z,1.27
2019-01-28T14:11:43.587Z,1.63
2019-01-28T14:14:26.503Z,1.73
2019-01-28T14:17:16.880Z,1.60
2019-01-28T14:20:10.398Z,1.70
2019-01-28T14:22:53.997Z,1.87
2019-01-28T14:25:44.342Z,1.60
2019-01-28T14:28:27.504Z,1.83
2019-01-28T14:31:17.827Z,1.47
2019-01-28T14:34:00.711Z,1.63
2019-01-28T14:36:51.103Z,1.60
2019-01-28T14:39:34.618Z,1.30
2019-01-28T14:42:24.976Z,2.20
2019-01-28T14:45:08.558Z,2.07
2019-01-28T14:47:58.920Z,1.90
2019-01-28T14:50:42.376Z,1.90
2019-01-28T14:53:32.786Z,2.00
2019-01-28T14:56:15.831Z,2.50
2019-01-28T14:59:06.315Z,2.13
2019-01-28T15:01:48.875Z,2.30
2019-01-28T15:04:39.240Z,2.07
2019-01-28T15:07:22.450Z,1.50
2019-01-28T15:10:30.780Z,1.60
2019-01-28T15:13:20.591Z,1.70
2019-01-28T15:16:10.985Z,2.00
2019-01-28T15:18:52.550Z,1.93
2019-01-28T15:21:35.463Z,1.77
2019-01-28T15:24:26.504Z,2.00
2019-01-28T15:27:31.870Z,1.70
2019-01-28T15:33:46.215Z,1.63
2019-01-28T15:36:29.825Z,1.87
2019-01-28T15:39:20.223Z,1.97
2019-01-28T15:42:03.217Z,1.80
2019-01-28T15:44:53.591Z,1.93
2019-01-28T15:47:38.219Z,2.00
2019-01-28T15:50:28.637Z,2.10
2019-01-28T15:53:14.146Z,2.43
2019-01-28T15:56:04.755Z,2.17
2019-01-28T15:58:48.243Z,1.90
2019-01-28T16:01:38.663Z,2.17
2019-01-28T16:04:29.097Z,2.23
2019-01-28T16:07:11.638Z,2.60
2019-01-28T16:10:02.017Z,2.40
2019-01-28T16:12:47.289Z,1.93
2019-01-28T16:15:40.840Z,1.77
2019-01-28T16:18:44.085Z,2.30
2019-01-28T16:21:27.289Z,2.27
2019-01-28T16:24:17.640Z,2.03
2019-01-28T16:27:01.560Z,2.33
2019-01-28T16:29:44.324Z,1.97
2019-01-28T16:32:34.749Z,2.30
2019-01-28T16:35:18.039Z,2.40
2019-01-28T16:38:08.447Z,2.50
2019-01-28T16:40:51.008Z,2.57
2019-01-28T16:43:41.457Z,3.07
2019-01-28T16:46:24.463Z,2.20
2019-01-28T16:49:14.831Z,2.40
2019-01-28T16:51:57.380Z,3.00
2019-01-28T16:54:47.814Z,3.00
2019-01-28T16:57:30.420Z,2.30
2019-01-28T17:00:23.502Z,2.67
2019-01-28T17:03:26.786Z,2.70
2019-01-28T17:06:17.254Z,2.23
2019-01-28T17:09:00.310Z,1.97
2019-01-28T17:11:50.773Z,2.43
2019-01-28T17:14:53.439Z,2.27
2019-01-28T17:17:43.917Z,2.67
2019-01-28T17:20:35.179Z,2.50
2019-01-28T17:23:19.783Z,2.70
2019-01-28T17:36:47.024Z,2.77
2019-01-28T17:43:08.082Z,3.07
2019-01-28T17:45:55.024Z,2.80
2019-01-28T17:52:09.067Z,3.17
2019-01-28T18:02:31.554Z,2.70
2019-01-28T18:05:15.227Z,2.50
2019-01-28T18:08:26.053Z,2.80
2019-01-28T18:11:09.468Z,3.07
2019-01-28T18:13:59.889Z,2.70
2019-01-28T18:16:44.279Z,2.63
2019-01-28T18:23:37.703Z,3.47
2019-01-28T18:26:28.123Z,3.57
2019-01-28T18:29:11.514Z,3.73
2019-01-28T18:32:02.066Z,3.17
2019-01-28T18:34:46.025Z,3.37
2019-01-28T18:37:37.275Z,3.70
2019-01-28T18:40:20.823Z,3.27
2019-01-28T18:43:11.249Z,3.77
2019-01-28T18:48:52.096Z,3.33
2019-01-28T18:51:42.468Z,2.80
2019-01-28T18:54:25.721Z,2.77
2019-01-28T18:57:16.294Z,3.03
2019-01-28T19:00:01.507Z,3.07
2019-01-28T19:02:51.063Z,2.90
2019-01-28T19:09:18.653Z,3.10
2019-01-28T19:12:14.886Z,2.77
2019-01-28T19:15:32.833Z,2.90
2019-01-28T19:18:34.897Z,3.33
2019-01-28T19:21:31.301Z,3.00
2019-01-28T19:24:14.874Z,2.53
2019-01-28T19:27:05.431Z,3.13
2019-01-28T19:29:48.672Z,2.50
2019-01-28T19:32:39.134Z,2.63
2019-01-28T19:35:21.890Z,3.43
2019-01-28T19:38:12.307Z,2.83
2019-01-28T19:40:55.937Z,3.20
2019-01-28T19:43:46.368Z,2.83
2019-01-28T19:46:36.767Z,2.90
2019-01-28T19:49:20.227Z,3.07
2019-01-28T19:52:10.673Z,2.90
2019-01-28T19:54:54.724Z,2.40
2019-01-28T19:57:39.046Z,2.10
2019-01-28T20:00:49.427Z,2.63
2019-01-28T20:03:32.217Z,2.37
2019-01-28T20:09:48.850Z,2.40
2019-01-28T20:12:39.273Z,2.83
2019-01-28T20:15:22.345Z,2.97
2019-01-28T20:18:14.994Z,3.20
2019-01-28T20:21:23.678Z,3.20
2019-01-28T20:27:20.563Z,3.40
2019-01-28T20:30:14.965Z,3.50
2019-01-28T20:32:57.666Z,3.80
2019-01-28T20:35:48.084Z,3.30
2019-01-28T20:38:31.027Z,3.43
2019-01-28T20:41:21.489Z,2.97
2019-01-28T20:44:04.243Z,3.10
2019-01-28T20:46:54.693Z,2.97
2019-01-28T20:49:37.976Z,3.00
2019-01-28T20:52:28.358Z,2.70
2019-01-28T20:55:11.066Z,3.03
2019-01-28T20:58:01.496Z,2.47
2019-01-28T21:00:44.455Z,2.90
2019-01-28T21:03:34.931Z,3.10
2019-01-28T21:06:17.551Z,2.30
2019-01-28T21:09:11.663Z,2.73
2019-01-28T21:11:55.093Z,2.63
2019-01-28T21:14:45.544Z,2.70
2019-01-28T21:17:28.507Z,2.63
2019-01-28T21:20:19.111Z,2.87
2019-01-28T21:23:02.105Z,3.03
2019-01-28T21:25:52.555Z,2.37
2019-01-28T21:28:42.956Z,2.60
2019-01-28T21:31:26.317Z,2.90
2019-01-28T21:34:16.744Z,3.03
2019-01-28T21:40:22.762Z,3.47
2019-01-28T21:43:05.530Z,3.20
2019-01-28T21:45:56.101Z,3.10
2019-01-28T21:48:39.193Z,3.27
2019-01-28T21:51:29.556Z,3.30
2019-01-28T21:54:12.440Z,2.80
2019-01-28T21:57:02.923Z,3.10
2019-01-28T21:59:46.374Z,2.97
2019-01-28T22:02:29.181Z,3.10
2019-01-28T22:05:19.676Z,3.23
2019-01-28T22:08:02.604Z,2.87
2019-01-28T22:10:53.015Z,3.27
2019-01-28T22:13:35.813Z,3.80
2019-01-28T22:16:26.220Z,3.50
2019-01-28T22:19:09.414Z,3.33
2019-01-28T22:21:59.853Z,3.83
2019-01-28T22:24:43.365Z,3.17
2019-01-28T22:27:33.771Z,3.73
2019-01-28T22:30:18.079Z,3.87
2019-01-28T22:33:09.022Z,3.83
2019-01-28T22:36:13.074Z,3.80
2019-01-28T22:42:06.937Z,4.10
2019-01-28T22:44:57.315Z,3.90
2019-01-28T22:47:40.063Z,3.63
2019-01-28T22:50:30.472Z,4.23
2019-01-28T22:53:13.850Z,4.27
2019-01-28T22:56:04.281Z,4.37
2019-01-28T22:58:47.163Z,4.90
2019-01-28T23:01:31.752Z,5.00
2019-01-28T23:04:22.166Z,4.50
2019-01-28T23:07:05.329Z,4.40
2019-01-28T23:09:55.728Z,4.40
2019-01-28T23:12:38.475Z,4.00
2019-01-28T23:15:28.883Z,4.23
2019-01-28T23:18:11.920Z,4.50
2019-01-28T23:21:02.328Z,3.80
2019-01-28T23:23:45.813Z,3.50
2019-01-28T23:26:36.280Z,4.00
2019-01-28T23:29:20.009Z,3.83
2019-01-28T23:32:10.450Z,4.00
2019-01-28T23:34:53.750Z,3.37
2019-01-28T23:37:44.133Z,3.50
2019-01-28T23:40:27.072Z,3.93
2019-01-28T23:43:17.592Z,4.20
2019-01-28T23:46:01.185Z,4.50
2019-01-28T23:48:51.656Z,4.10
2019-01-28T23:51:54.386Z,5.03
2019-01-28T23:54:44.875Z,4.77
2019-01-28T23:57:29.800Z,4.40
